Caddo, Louisiana
Current Conditions -  °F | °C
As of 2:53 PM on Friday 19 Dec 2014 (Local Time) from KDTN Reporting Station
Overcast Overcast  
Wind Chill: 44°   Ceiling: 800
Heat Index: 47°   Visibility: 10mi
Dew Point: 44°   Wind: 7mph
Humidity: 90%   Direction: 360°N
Pressure: 30.12"   Gusts: NA
Location:  32.7782°N, 93.9615°W
Report Text: KDTN 192053Z 36006KT 10SM OVC008 08/07 A3012 RMK AO2 SLP198 60000 T00830067 53001
Loading
Personal Weather Stations






























Interactive Weather Map New forecast layout! Learn more

10-Day Weather Forecast

Advertisements
Track Severe Weather on mobile